首页
METAR-TAF:

METAR-TAF

机场 :

維珍尼亞海灘, 弗吉尼亚州, 美国

纬度: 36-49-16N, 经度: 076-01-42W, 海拔: 6米

当前天气观测

该预报发布于18分钟前的09:56 UTC
风速16节,风向西南
温度 23°C
湿度 83%
气压 1017 hPa
能見度: 16.1公里
散云层高于1500英尺
多云层高于2300英尺
多云层高于6500英尺

METAR: KNTU 260956Z 22016KT 10SM SCT015 BKN023 BKN065 23/20 A3004 RMK AO2 SLP175 T2 SET T02280200

时间: 06:14 (10:14 UTC)

预报

预报有效从26日的 07点(UTC)到 27日的 07点(UTC)
风速14节,风向
能见度10公里或以上
散云层高于2000英尺
多云层高于25000英尺
附近有雷暴
成为
从 26日的 11点(UTC)到 26日的 13点(UTC)
风速10节,风向南转西南
能见度10公里或以上
少量云层高于2000英尺
散云层高于5000英尺
多云层高于25000英尺
成为
从 26日的 16点(UTC)到 26日的 18点(UTC)
风速6节,风向多变
少量云层高于2000英尺
散云层高于5000英尺
多云层高于25000英尺

TAF: KNTU 2607/2707 19014KT 9999 VCTS SCT020 BKN250 QNH2995INS BECMG 2611/2613 20010KT 9999 NSW FEW020 SCT050 BKN250 QNH2993INS BECMG 2616/2618 VRB06KT FEW020 SCT050 BKN250 QNH2989INS T22/2610Z T30/2620Z FN00205

超过4000个机场的气象观测和天气预报(METAR&TAF报告)。

可查询的气象台以黄色和红色小点在地图上表示。

将鼠标移到小点上方,可查看气象台名称。

然后点击查看天气观测和预报。

如需切换地图:点击带黑十字的绿色按钮放大地图;点击带横线的绿色按钮缩小地图;或者点击绿色箭头查看邻近地区的地图。


METAR-TAF: